Time;durP1;ratioP1;P1;durP2;ratioP2;P2;SDS_P1;SDS_P2;PMS_P1;PMS_P2;Temp;Humidity;BMP_temperature;BMP_pressure;BME280_temperature;BME280_humidity;BME280_pressure;Samples;Min_cycle;Max_cycle;Signal;HPM_P1;HPM_P2
2021/05/09 00:01:25;;;;;;;4.93;2.80;;;;;;;11.06;58.47;98316.69;3589489;40;20036;-63
2021/05/09 00:03:52;;;;;;;2.53;2.33;;;;;;;10.91;58.74;98315.09;3589670;40;20056;-62
2021/05/09 00:06:19;;;;;;;3.60;2.63;;;;;;;10.70;59.25;98311.88;3589020;40;20052;-62
2021/05/09 00:08:46;;;;;;;4.53;3.30;;;;;;;10.65;59.33;98301.91;3589251;40;20047;-63
2021/05/09 00:11:14;;;;;;;3.30;2.42;;;;;;;10.60;59.82;98305.16;3589208;40;20077;-62
2021/05/09 00:13:42;;;;;;;2.90;2.63;;;;;;;10.64;59.80;98305.56;3589640;40;20074;-63
2021/05/09 00:16:09;;;;;;;4.82;3.80;;;;;;;10.68;60.01;98298.84;3589369;40;20063;-63
2021/05/09 00:18:36;;;;;;;5.28;3.63;;;;;;;10.72;59.73;98299.25;3588781;40;20060;-63
2021/05/09 00:21:05;;;;;;;5.22;3.47;;;;;;;10.79;59.74;98295.59;3589301;40;20055;-62
2021/05/09 00:23:32;;;;;;;3.83;2.97;;;;;;;10.83;59.58;98283.59;3580021;40;20298;-63
2021/05/09 00:26:00;;;;;;;8.63;5.15;;;;;;;10.88;59.73;98289.06;3590035;40;20052;-63
2021/05/09 00:28:27;;;;;;;5.47;2.70;;;;;;;10.87;59.29;98276.06;3581006;40;20055;-63
2021/05/09 00:30:54;;;;;;;3.25;2.95;;;;;;;10.78;59.60;98283.41;3590060;40;20045;-62
2021/05/09 00:33:21;;;;;;;5.18;3.50;;;;;;;10.82;59.76;98284.59;3590267;40;20048;-63
2021/05/09 00:35:47;;;;;;;6.32;3.55;;;;;;;10.87;59.47;98286.63;3589949;40;20321;-63
2021/05/09 00:38:14;;;;;;;6.85;3.83;;;;;;;10.90;59.42;98279.09;3589100;40;20081;-63
2021/05/09 00:40:41;;;;;;;4.43;3.00;;;;;;;10.90;59.53;98280.94;3579860;40;20047;-62
2021/05/09 00:43:08;;;;;;;4.22;3.05;;;;;;;10.83;59.40;98283.59;3589422;40;20049;-62
2021/05/09 00:45:39;;;;;;;3.50;2.78;;;;;;;10.62;59.84;98289.13;3579953;40;20052;-63
2021/05/09 00:48:09;;;;;;;3.38;3.08;;;;;;;10.45;60.30;98287.88;3590679;40;20055;-62
2021/05/09 00:50:37;;;;;;;3.15;2.60;;;;;;;10.28;61.06;98296.22;3594574;40;20064;-63
2021/05/09 00:53:05;;;;;;;3.25;2.92;;;;;;;10.24;61.48;98292.31;3584659;40;20085;-63
2021/05/09 00:55:33;;;;;;;3.97;2.88;;;;;;;10.30;61.55;98291.56;3584844;40;20059;-63
2021/05/09 00:58:00;;;;;;;4.28;3.55;;;;;;;10.35;61.38;98277.75;3594412;40;20040;-63
2021/05/09 01:00:27;;;;;;;4.70;3.22;;;;;;;10.26;61.98;98284.25;3582612;40;20328;-63
2021/05/09 01:02:58;;;;;;;4.10;3.17;;;;;;;10.33;61.98;98287.72;3579906;40;20389;-63
2021/05/09 01:05:25;;;;;;;5.97;3.50;;;;;;;10.40;61.89;98277.94;3579998;40;20076;-63
2021/05/09 01:07:54;;;;;;;4.97;3.22;;;;;;;10.46;61.59;98279.78;3579739;40;20405;-63
2021/05/09 01:10:21;;;;;;;4.82;3.70;;;;;;;10.52;61.35;98283.41;3589206;40;20067;-63
2021/05/09 01:12:48;;;;;;;5.50;3.22;;;;;;;10.47;61.35;98275.28;3579701;40;20045;-63
2021/05/09 01:15:16;;;;;;;3.80;2.72;;;;;;;10.34;61.82;98276.13;3582079;40;20052;-68
2021/05/09 01:17:43;;;;;;;3.53;2.80;;;;;;;10.30;61.83;98277.53;3595297;40;20055;-64
2021/05/09 01:20:35;;;;;;;4.25;3.08;;;;;;;10.26;62.35;98266.56;3585784;40;20373;-62
2021/05/09 01:23:03;;;;;;;4.13;3.35;;;;;;;10.29;62.13;98265.34;3585339;40;20061;-64
2021/05/09 01:25:31;;;;;;;4.88;3.17;;;;;;;10.31;62.10;98258.03;3589359;40;20056;-63
2021/05/09 01:27:58;;;;;;;4.50;3.83;;;;;;;10.38;61.80;98261.47;3579788;40;20048;-63
2021/05/09 01:30:26;;;;;;;4.68;3.28;;;;;;;10.48;61.84;98261.88;3581316;40;20110;-61
2021/05/09 01:32:53;;;;;;;3.95;2.95;;;;;;;10.56;61.27;98256.38;3590398;40;20060;-62
2021/05/09 01:35:21;;;;;;;4.07;2.78;;;;;;;10.50;61.49;98246.63;3589297;40;20045;-62
2021/05/09 01:37:49;;;;;;;5.07;2.70;;;;;;;10.44;61.35;98250.09;3579344;40;20064;-62
2021/05/09 01:40:16;;;;;;;4.30;3.72;;;;;;;10.33;61.47;98251.53;3589602;40;20064;-62
2021/05/09 01:42:43;;;;;;;4.20;3.38;;;;;;;10.28;61.93;98248.66;3589175;40;20084;-62
2021/05/09 01:45:12;;;;;;;5.38;3.35;;;;;;;10.19;62.24;98247.22;3579399;40;20073;-62
2021/05/09 01:47:40;;;;;;;5.38;3.13;;;;;;;10.27;62.19;98243.59;3579687;40;20045;-62
2021/05/09 01:50:09;;;;;;;7.25;3.58;;;;;;;10.40;62.03;98248.88;3589061;40;20059;-62
2021/05/09 01:52:36;;;;;;;4.10;2.95;;;;;;;10.41;61.70;98246.03;3588525;40;20052;-62
2021/05/09 01:55:06;;;;;;;3.38;3.08;;;;;;;10.38;61.90;98249.09;3589217;40;20048;-62
2021/05/09 01:57:34;;;;;;;4.20;3.20;;;;;;;10.39;61.78;98242.78;3579592;40;20053;-61
2021/05/09 02:00:07;;;;;;;3.78;3.25;;;;;;;10.46;61.65;98249.91;3588965;40;20044;-62
2021/05/09 02:02:43;;;;;;;5.15;3.45;;;;;;;10.42;61.39;98246.84;3588654;40;20037;-61
2021/05/09 02:05:13;;;;;;;4.22;3.60;;;;;;;10.36;61.73;98243.19;3579276;40;20048;-61
2021/05/09 02:07:40;;;;;;;4.53;3.83;;;;;;;10.31;61.67;98240.34;3578976;40;20413;-61
2021/05/09 02:10:10;;;;;;;5.43;3.38;;;;;;;10.16;62.03;98240.53;3588520;40;20056;-63
2021/05/09 02:12:37;;;;;;;6.72;2.92;;;;;;;10.20;62.22;98237.47;3579076;40;20052;-62
2021/05/09 02:15:26;;;;;;;4.57;2.58;;;;;;;10.17;62.47;98234.22;3579274;40;20329;-62
2021/05/09 02:18:00;;;;;;;3.53;3.20;;;;;;;10.26;62.48;98237.50;3578790;40;20052;-63
2021/05/09 02:20:30;;;;;;;3.03;2.63;;;;;;;10.21;62.68;98229.34;3579127;40;20071;-61
2021/05/09 02:22:57;;;;;;;4.38;3.35;;;;;;;10.25;62.56;98229.81;3579964;40;20126;-64
2021/05/09 02:25:25;;;;;;;3.40;3.10;;;;;;;10.08;62.63;98242.53;3588827;40;20433;-62
2021/05/09 02:27:58;;;;;;;5.00;2.78;;;;;;;10.04;63.12;98231.59;3589280;40;20291;-63
2021/05/09 02:30:24;;;;;;;5.22;3.20;;;;;;;10.03;63.29;98237.06;3590203;40;20036;-63
2021/05/09 02:32:52;;;;;;;8.70;4.47;;;;;;;10.05;63.29;98238.50;3581555;40;20117;-64
2021/05/09 02:35:18;;;;;;;3.85;3.30;;;;;;;10.13;63.10;98238.28;3581865;40;20083;-63
2021/05/09 02:37:45;;;;;;;6.55;3.20;;;;;;;10.13;62.90;98240.13;3582934;40;20055;-63
2021/05/09 02:40:14;;;;;;;10.68;3.30;;;;;;;10.15;63.47;98238.09;3582726;40;20048;-62
2021/05/09 02:42:43;;;;;;;4.93;3.25;;;;;;;10.15;63.25;98238.88;3583045;40;20422;-62
2021/05/09 02:45:13;;;;;;;5.40;3.13;;;;;;;10.15;63.42;98238.09;3590855;40;20048;-62
2021/05/09 02:47:40;;;;;;;4.68;2.78;;;;;;;10.15;63.33;98238.09;3582059;40;20051;-62
2021/05/09 02:50:12;;;;;;;5.68;3.28;;;;;;;10.13;63.08;98224.28;3582702;40;20394;-63
2021/05/09 02:52:41;;;;;;;5.88;3.63;;;;;;;10.03;63.33;98232.59;3592162;40;20362;-64
2021/05/09 02:55:09;;;;;;;5.30;2.85;;;;;;;10.03;63.53;98227.31;3582173;40;20060;-63
2021/05/09 02:57:37;;;;;;;3.78;2.80;;;;;;;10.01;63.85;98221.44;3581303;40;20050;-63
2021/05/09 03:00:07;;;;;;;3.60;3.00;;;;;;;10.09;63.45;98231.78;3582028;40;20055;-62
2021/05/09 03:02:36;;;;;;;5.63;3.33;;;;;;;10.17;63.65;98226.31;3591212;40;20051;-62
2021/05/09 03:05:08;;;;;;;5.22;3.03;;;;;;;10.32;63.43;98230.59;3581668;40;20063;-62
2021/05/09 03:07:35;;;;;;;7.07;3.38;;;;;;;10.35;62.90;98233.63;3590682;40;20058;-63
2021/05/09 03:10:05;;;;;;;4.47;2.90;;;;;;;10.32;63.12;98228.75;3581759;40;20119;-64
2021/05/09 03:12:32;;;;;;;4.90;2.88;;;;;;;10.32;63.13;98234.03;3591079;40;20061;-62
2021/05/09 03:15:02;;;;;;;4.05;3.10;;;;;;;10.28;62.73;98235.47;3581508;40;20490;-62
2021/05/09 03:17:32;;;;;;;5.63;3.17;;;;;;;10.29;63.04;98231.00;3590479;40;20080;-62
2021/05/09 03:20:00;;;;;;;4.72;2.83;;;;;;;10.14;63.04;98232.00;3591061;40;20055;-62
2021/05/09 03:22:27;;;;;;;3.33;2.97;;;;;;;10.08;62.86;98229.34;3591083;40;20491;-63
2021/05/09 03:24:55;;;;;;;4.63;3.35;;;;;;;10.00;63.50;98213.69;3591034;40;20021;-63
2021/05/09 03:27:22;;;;;;;3.20;2.90;;;;;;;9.89;63.93;98226.50;3590637;40;20045;-63
2021/05/09 03:29:48;;;;;;;5.10;3.30;;;;;;;9.96;63.86;98225.69;3590565;40;20118;-64
2021/05/09 03:32:15;;;;;;;4.18;3.00;;;;;;;9.99;63.90;98220.00;3580239;40;20052;-62
2021/05/09 03:34:43;;;;;;;4.90;3.38;;;;;;;9.96;63.94;98220.41;3589487;40;20425;-62
2021/05/09 03:37:11;;;;;;;5.07;3.08;;;;;;;10.01;63.86;98223.25;3589832;40;20531;-63
2021/05/09 03:39:38;;;;;;;3.80;3.40;;;;;;;9.97;64.04;98222.84;3589745;40;20055;-65
2021/05/09 03:42:05;;;;;;;4.43;2.95;;;;;;;9.97;64.25;98224.69;3592104;40;20049;-63
2021/05/09 03:44:33;;;;;;;3.97;3.38;;;;;;;9.93;64.23;98222.44;3593841;40;20063;-63
2021/05/09 03:47:00;;;;;;;3.78;3.05;;;;;;;9.94;64.19;98223.25;3592716;40;20056;-65
2021/05/09 03:49:27;;;;;;;6.15;3.28;;;;;;;9.97;64.55;98224.69;3593514;40;20052;-64
2021/05/09 03:51:55;;;;;;;5.00;3.35;;;;;;;10.01;64.36;98224.06;3593567;40;20052;-63
2021/05/09 03:54:22;;;;;;;4.75;3.42;;;;;;;9.97;64.26;98228.13;3582557;40;20049;-63
2021/05/09 03:56:49;;;;;;;7.22;3.60;;;;;;;10.00;64.33;98219.81;3590003;40;20048;-63
2021/05/09 03:59:16;;;;;;;4.50;3.60;;;;;;;9.93;64.53;98226.91;3589927;40;20321;-63
2021/05/09 04:01:43;;;;;;;4.93;3.47;;;;;;;9.97;64.55;98227.31;3580131;40;20041;-63
2021/05/09 04:04:10;;;;;;;6.10;3.47;;;;;;;9.92;64.19;98212.91;3589539;40;20060;-65
2021/05/09 04:06:37;;;;;;;5.13;3.25;;;;;;;9.90;64.78;98212.28;3589324;40;20048;-63
2021/05/09 04:09:05;;;;;;;4.65;3.25;;;;;;;9.95;64.73;98222.22;3589246;40;20059;-63
2021/05/09 04:11:32;;;;;;;5.32;3.45;;;;;;;10.04;64.38;98215.75;3589291;40;20076;-63
2021/05/09 04:13:59;;;;;;;4.05;3.08;;;;;;;10.09;64.56;98215.13;3589264;40;20044;-63
2021/05/09 04:16:26;;;;;;;5.22;3.00;;;;;;;10.08;64.13;98213.50;3589421;40;20060;-63
2021/05/09 04:18:53;;;;;;;4.55;3.80;;;;;;;10.18;64.26;98213.91;3589307;40;20045;-64
2021/05/09 04:21:19;;;;;;;4.85;3.63;;;;;;;10.24;63.87;98214.91;3589174;40;20040;-63
2021/05/09 04:23:46;;;;;;;4.88;3.20;;;;;;;10.28;63.91;98216.97;3589258;40;20084;-63
2021/05/09 04:26:14;;;;;;;3.20;2.90;;;;;;;10.31;63.71;98213.94;3589306;40;20099;-63
2021/05/09 04:28:41;;;;;;;5.05;3.08;;;;;;;10.31;63.96;98215.75;3589040;40;20055;-64
2021/05/09 04:31:07;;;;;;;4.78;2.90;;;;;;;10.44;64.04;98205.16;3589274;40;20060;-63
2021/05/09 04:33:34;;;;;;;4.90;2.83;;;;;;;10.49;63.49;98202.75;3579678;40;20048;-64
2021/05/09 04:36:01;;;;;;;4.35;3.40;;;;;;;10.51;63.54;98198.03;3579732;40;20048;-64
2021/05/09 04:38:28;;;;;;;3.00;2.70;;;;;;;10.48;63.62;98198.44;3588739;40;20045;-64
2021/05/09 04:40:54;;;;;;;3.60;3.05;;;;;;;10.50;63.76;98201.72;3579579;40;20059;-63
2021/05/09 04:43:23;;;;;;;3.33;3.03;;;;;;;10.52;63.86;98204.13;3589073;40;20052;-62
2021/05/09 04:45:52;;;;;;;4.40;3.20;;;;;;;10.53;63.84;98205.75;3588964;40;20024;-63
2021/05/09 04:48:19;;;;;;;4.47;3.22;;;;;;;10.58;63.71;98204.13;3588796;40;20055;-63
2021/05/09 04:50:46;;;;;;;3.70;2.67;;;;;;;10.61;63.71;98198.44;3589074;40;20052;-64
2021/05/09 04:53:27;;;;;;;4.00;3.15;;;;;;;10.59;63.71;98207.59;3589018;40;20430;-64
2021/05/09 04:55:55;;;;;;;4.78;3.22;;;;;;;10.57;63.60;98196.38;3588945;40;20052;-62
2021/05/09 04:58:23;;;;;;;3.00;2.70;;;;;;;10.57;63.69;98197.22;3587965;40;20052;-63
2021/05/09 05:00:54;;;;;;;3.28;2.70;;;;;;;10.66;63.67;98197.81;3579569;40;20052;-63
2021/05/09 05:03:21;;;;;;;3.40;3.10;;;;;;;10.70;63.70;98199.03;3589293;40;20053;-63
2021/05/09 05:05:48;;;;;;;3.30;2.65;;;;;;;10.74;63.65;98200.22;3588806;40;20370;-63
2021/05/09 05:08:15;;;;;;;4.75;4.03;;;;;;;10.85;63.56;98202.19;3588414;40;20049;-64
2021/05/09 05:10:42;;;;;;;3.83;3.10;;;;;;;10.87;63.42;98205.47;3589392;40;20080;-64
2021/05/09 05:13:19;;;;;;;3.40;3.10;;;;;;;10.97;63.48;98212.13;3588626;40;20402;-64
2021/05/09 05:15:48;;;;;;;3.85;3.28;;;;;;;11.02;62.82;98207.88;3589093;40;20048;-63
2021/05/09 05:18:16;;;;;;;4.38;3.30;;;;;;;11.01;63.12;98202.75;3588648;40;20056;-63
2021/05/09 05:20:43;;;;;;;5.18;3.30;;;;;;;11.03;62.88;98211.31;3588788;40;20055;-63
2021/05/09 05:23:11;;;;;;;2.60;2.40;;;;;;;10.96;62.74;98207.88;3589069;40;20310;-63
2021/05/09 05:25:38;;;;;;;3.35;2.92;;;;;;;11.00;62.63;98204.59;3588685;40;20052;-63
2021/05/09 05:28:05;;;;;;;5.18;3.45;;;;;;;10.97;62.89;98206.84;3588428;40;20044;-63
2021/05/09 05:30:33;;;;;;;3.85;3.28;;;;;;;11.00;62.63;98214.38;3588757;40;20133;-63
2021/05/09 05:33:05;;;;;;;3.75;3.30;;;;;;;10.88;62.66;98203.63;3588638;40;20044;-63
2021/05/09 05:35:33;;;;;;;4.40;3.80;;;;;;;10.87;63.29;98218.69;3589188;40;20084;-63
2021/05/09 05:38:00;;;;;;;4.75;3.28;;;;;;;10.96;62.99;98208.69;3588693;40;20040;-63
2021/05/09 05:40:28;;;;;;;5.47;4.55;;;;;;;11.10;62.99;98206.78;3589106;40;20394;-63
2021/05/09 05:42:55;;;;;;;5.30;4.00;;;;;;;11.17;62.46;98207.56;3588884;40;20413;-63
2021/05/09 05:45:22;;;;;;;6.05;4.68;;;;;;;11.20;62.40;98201.88;3588805;40;20420;-63
2021/05/09 05:47:50;;;;;;;4.78;3.80;;;;;;;11.22;62.66;98199.81;3588407;40;20048;-63
2021/05/09 05:50:18;;;;;;;5.35;3.60;;;;;;;11.28;62.56;98203.47;3588465;40;20368;-63
2021/05/09 05:52:45;;;;;;;5.25;3.83;;;;;;;11.40;62.60;98202.59;3588562;40;20060;-62
2021/05/09 05:55:12;;;;;;;5.95;3.97;;;;;;;11.58;62.51;98196.56;3589236;40;20093;-62
2021/05/09 05:57:39;;;;;;;6.07;3.90;;;;;;;11.83;62.14;98203.75;3588736;40;20052;-62
2021/05/09 06:00:07;;;;;;;4.13;3.72;;;;;;;12.03;61.43;98195.66;3588888;40;20052;-62
2021/05/09 06:02:34;;;;;;;4.80;3.75;;;;;;;12.18;61.10;98201.44;3589080;40;20356;-64
2021/05/09 06:05:01;;;;;;;7.40;3.75;;;;;;;12.27;60.62;98200.13;3589408;40;20405;-63
2021/05/09 06:07:29;;;;;;;4.78;3.78;;;;;;;12.43;60.38;98204.06;3593972;40;20068;-63
2021/05/09 06:09:56;;;;;;;9.05;6.85;;;;;;;12.51;60.38;98189.72;3594781;40;20051;-64
2021/05/09 06:12:23;;;;;;;10.32;6.13;;;;;;;12.66;60.07;98199.97;3593369;40;20036;-64
2021/05/09 06:14:50;;;;;;;6.47;4.35;;;;;;;12.79;59.90;98197.97;3590959;40;20056;-63
2021/05/09 06:17:17;;;;;;;7.00;5.57;;;;;;;12.96;59.55;98198.19;3590759;40;20044;-65
2021/05/09 06:19:44;;;;;;;5.28;4.38;;;;;;;13.02;59.16;98191.16;3590294;40;20052;-65
2021/05/09 06:22:10;;;;;;;4.15;3.22;;;;;;;13.09;59.30;98189.25;3590093;40;20049;-64
2021/05/09 06:24:38;;;;;;;3.63;3.10;;;;;;;13.22;59.58;98193.56;3590107;40;20056;-64
2021/05/09 06:27:05;;;;;;;5.55;3.75;;;;;;;13.37;59.52;98186.06;3589902;40;20056;-64
2021/05/09 06:29:32;;;;;;;4.57;3.47;;;;;;;13.63;58.58;98187.50;3590364;40;20155;-64
2021/05/09 06:31:59;;;;;;;4.18;3.45;;;;;;;13.79;58.37;98184.19;3590223;40;20056;-63
2021/05/09 06:34:26;;;;;;;5.22;3.78;;;;;;;13.94;58.18;98181.13;3590005;40;20410;-63
2021/05/09 06:36:53;;;;;;;6.93;4.40;;;;;;;14.11;57.58;98173.28;3589524;40;20048;-64
2021/05/09 06:39:25;;;;;;;8.38;4.53;;;;;;;14.22;57.69;98172.47;3589857;40;20322;-64
2021/05/09 06:41:55;;;;;;;10.25;5.50;;;;;;;14.38;57.29;98165.66;3589694;40;20045;-63
2021/05/09 06:44:22;;;;;;;6.55;4.95;;;;;;;14.61;56.88;98170.16;3589833;40;20052;-63
2021/05/09 06:46:49;;;;;;;7.30;6.32;;;;;;;14.79;56.40;98170.00;3589705;40;20394;-63
2021/05/09 06:49:16;;;;;;;5.90;5.25;;;;;;;14.98;56.06;98159.19;3589684;40;20052;-62
2021/05/09 06:51:43;;;;;;;6.00;4.18;;;;;;;15.10;55.32;98158.13;3589637;40;20043;-63
2021/05/09 06:54:10;;;;;;;5.10;3.13;;;;;;;15.26;55.19;98158.41;3589756;40;20424;-63
2021/05/09 06:56:37;;;;;;;4.47;3.75;;;;;;;15.40;55.27;98158.94;3589781;40;20055;-63
2021/05/09 06:59:05;;;;;;;4.72;3.30;;;;;;;15.61;55.07;98158.22;3589421;40;20049;-63
2021/05/09 07:01:31;;;;;;;6.30;2.95;;;;;;;15.79;54.77;98157.22;3589645;40;20048;-63
2021/05/09 07:03:59;;;;;;;5.80;3.03;;;;;;;15.99;54.20;98154.88;3589818;40;20116;-63
2021/05/09 07:06:26;;;;;;;3.95;3.08;;;;;;;16.14;53.87;98151.63;3589846;40;20302;-62
2021/05/09 07:08:52;;;;;;;2.97;2.63;;;;;;;16.28;54.17;98152.91;3590195;40;20078;-62
2021/05/09 07:11:19;;;;;;;3.38;3.03;;;;;;;16.46;53.56;98145.69;3590236;40;20145;-62
2021/05/09 07:13:46;;;;;;;4.20;2.88;;;;;;;16.68;53.02;98146.50;3590204;40;20048;-62
2021/05/09 07:16:14;;;;;;;3.63;2.75;;;;;;;16.83;52.93;98138.72;3589749;40;20412;-62
2021/05/09 07:18:41;;;;;;;3.67;2.47;;;;;;;16.98;53.01;98137.28;3589333;40;20085;-62
2021/05/09 07:21:13;;;;;;;5.90;3.00;;;;;;;17.14;53.21;98132.91;3589614;40;20056;-62
2021/05/09 07:23:45;;;;;;;2.17;1.98;;;;;;;17.38;52.50;98133.41;3590192;40;20125;-62
2021/05/09 07:26:12;;;;;;;4.47;2.20;;;;;;;17.60;51.80;98125.34;3581059;40;20057;-63
2021/05/09 07:28:39;;;;;;;3.58;1.95;;;;;;;17.89;50.65;98120.53;3590628;40;20054;-62
2021/05/09 07:31:06;;;;;;;1.90;1.80;;;;;;;18.05;49.70;98116.91;3590523;40;20079;-63
2021/05/09 07:33:34;;;;;;;4.65;2.35;;;;;;;18.22;49.47;98114.88;3590616;40;20302;-63
2021/05/09 07:36:01;;;;;;;1.55;1.42;;;;;;;18.37;49.10;98119.50;3590472;40;20068;-63
2021/05/09 07:38:31;;;;;;;2.35;1.90;;;;;;;18.59;48.50;98105.16;3589905;40;20054;-63
2021/05/09 07:40:57;;;;;;;2.63;2.42;;;;;;;18.70;47.94;98098.81;3590299;40;20053;-63
2021/05/09 07:43:24;;;;;;;2.35;2.15;;;;;;;18.78;47.62;98087.59;3590311;40;20044;-62
2021/05/09 07:45:51;;;;;;;3.08;2.78;;;;;;;19.12;46.70;98095.16;3589971;40;20055;-63
2021/05/09 07:48:18;;;;;;;3.53;1.80;;;;;;;19.38;44.71;98086.09;3589465;40;20048;-63
2021/05/09 07:50:46;;;;;;;2.08;1.70;;;;;;;19.77;43.07;98083.72;3589666;40;20053;-63
2021/05/09 07:53:14;;;;;;;2.17;1.70;;;;;;;20.08;41.46;98072.13;3589431;40;20041;-63
2021/05/09 07:55:41;;;;;;;3.80;1.80;;;;;;;20.26;41.52;98074.22;3589451;40;20119;-63
2021/05/09 07:58:15;;;;;;;1.63;1.50;;;;;;;20.39;41.15;98070.97;3589171;40;20059;-63
2021/05/09 08:00:42;;;;;;;2.03;1.65;;;;;;;20.51;40.84;98071.47;3589644;40;20052;-63
2021/05/09 08:03:09;;;;;;;2.28;1.88;;;;;;;20.76;39.62;98061.72;3589503;40;20045;-63
2021/05/09 08:05:36;;;;;;;1.63;1.50;;;;;;;20.91;39.39;98066.19;3589137;40;20321;-64
2021/05/09 08:08:04;;;;;;;3.53;1.48;;;;;;;21.05;38.85;98050.25;3589214;40;20134;-64
2021/05/09 08:10:35;;;;;;;4.60;2.13;;;;;;;21.23;38.22;98063.03;3579951;40;20389;-64
2021/05/09 08:13:05;;;;;;;3.67;1.60;;;;;;;21.38;37.61;98054.06;3589523;40;20430;-65
2021/05/09 08:15:32;;;;;;;3.05;1.80;;;;;;;21.49;37.37;98058.31;3592060;40;20060;-64
2021/05/09 08:18:00;;;;;;;1.83;1.70;;;;;;;21.62;37.12;98059.53;3591640;40;20060;-64
2021/05/09 08:20:27;;;;;;;4.20;2.20;;;;;;;21.70;36.76;98051.66;3593029;40;20033;-64
2021/05/09 08:22:55;;;;;;;3.20;1.92;;;;;;;21.82;36.46;98050.47;3654480;22;20076;-63
2021/05/09 08:25:22;;;;;;;2.78;1.92;;;;;;;21.96;36.48;98049.53;3598995;39;20402;-63
2021/05/09 08:27:50;;;;;;;2.65;1.60;;;;;;;22.13;35.57;98062.56;3598081;40;20042;-63
2021/05/09 08:30:18;;;;;;;4.07;1.50;;;;;;;22.17;35.56;98044.75;3599177;39;20105;-63
2021/05/09 08:32:45;;;;;;;2.97;1.70;;;;;;;22.29;35.21;98051.63;3598490;39;20040;-64
2021/05/09 08:35:12;;;;;;;2.00;1.80;;;;;;;22.36;35.43;98046.69;3599127;39;20048;-63
2021/05/09 08:37:40;;;;;;;4.57;1.90;;;;;;;22.49;34.89;98049.50;3598940;39;20079;-64
2021/05/09 08:40:09;;;;;;;1.77;1.40;;;;;;;22.53;34.71;98038.94;3598999;40;20121;-63
2021/05/09 08:42:37;;;;;;;2.78;1.95;;;;;;;22.56;34.66;98043.75;3598446;40;20052;-63
2021/05/09 08:45:04;;;;;;;2.25;1.50;;;;;;;22.62;34.86;98044.50;3599324;40;20056;-64
2021/05/09 08:47:38;;;;;;;2.20;1.60;;;;;;;22.68;34.43;98040.63;3598911;40;20043;-64
2021/05/09 08:50:07;;;;;;;1.73;1.58;;;;;;;22.80;34.61;98042.91;3598985;40;20047;-64
2021/05/09 08:52:34;;;;;;;4.18;1.52;;;;;;;22.96;34.45;98033.53;3598649;40;20044;-64
2021/05/09 08:55:01;;;;;;;2.50;1.70;;;;;;;23.01;34.17;98028.06;3598092;40;20044;-64
2021/05/09 08:57:28;;;;;;;2.72;2.47;;;;;;;23.08;34.28;98028.50;3598721;39;20048;-64
2021/05/09 08:59:57;;;;;;;3.05;1.80;;;;;;;23.19;33.68;98029.16;3598815;39;20052;-64
2021/05/09 09:02:24;;;;;;;3.05;1.50;;;;;;;23.35;33.70;98024.31;3598648;39;20048;-64
2021/05/09 09:04:53;;;;;;;2.10;1.88;;;;;;;23.45;33.56;98022.25;3597845;40;20048;-64
2021/05/09 09:07:20;;;;;;;1.90;1.52;;;;;;;23.55;33.21;98018.56;3598478;39;20047;-64
2021/05/09 09:09:48;;;;;;;2.97;1.67;;;;;;;23.62;32.52;98010.09;3599110;39;20047;-66
2021/05/09 09:12:20;;;;;;;2.45;2.00;;;;;;;23.70;32.66;98021.03;3597968;40;20044;-64
2021/05/09 09:14:53;;;;;;;2.63;1.75;;;;;;;23.84;32.44;98006.75;3599098;39;20133;-64
2021/05/09 09:17:22;;;;;;;2.58;1.77;;;;;;;24.01;32.05;98011.59;3597747;40;20125;-64
2021/05/09 09:20:08;;;;;;;2.97;1.90;;;;;;;24.10;31.79;98001.69;3599422;39;20042;-64
2021/05/09 09:22:55;;;;;;;2.33;1.80;;;;;;;24.21;31.85;98003.91;3597837;40;20424;-64
2021/05/09 09:25:26;;;;;;;2.70;1.92;;;;;;;24.37;31.76;97995.47;3598884;39;20044;-64
2021/05/09 09:27:55;;;;;;;6.45;4.13;;;;;;;24.52;31.45;97991.69;3599024;39;20048;-64
2021/05/09 09:30:24;;;;;;;4.25;1.92;;;;;;;24.53;31.44;97988.66;3599328;39;20320;-64
2021/05/09 09:33:09;;;;;;;4.88;2.35;;;;;;;24.59;31.21;97987.47;3598610;39;20056;-64
2021/05/09 09:35:41;;;;;;;3.00;2.60;;;;;;;24.70;31.34;97990.75;3598987;39;20086;-65
2021/05/09 09:38:25;;;;;;;2.10;1.90;;;;;;;24.74;30.91;97980.09;3598682;39;20040;-64
2021/05/09 09:41:15;;;;;;;3.90;3.50;;;;;;;24.86;30.91;97970.38;3598036;40;20161;-64
2021/05/09 09:43:45;;;;;;;3.25;1.70;;;;;;;24.92;30.77;97977.25;3598513;39;20390;-64
2021/05/09 09:46:26;;;;;;;2.78;1.40;;;;;;;24.95;30.71;97973.16;3598849;39;20052;-64
2021/05/09 09:48:55;;;;;;;3.42;1.95;;;;;;;24.97;29.88;97968.22;3598340;39;20324;-65
2021/05/09 09:51:22;;;;;;;4.05;1.83;;;;;;;24.90;29.81;97974.06;3597840;39;20393;-65
2021/05/09 09:53:50;;;;;;;3.03;1.75;;;;;;;24.96;29.78;97958.50;3598757;39;20052;-64
2021/05/09 09:56:19;;;;;;;11.10;2.25;;;;;;;24.97;29.93;97960.09;3598405;39;20447;-64
2021/05/09 09:58:51;;;;;;;3.20;1.50;;;;;;;24.97;29.52;97952.00;3598078;39;20044;-64
2021/05/09 10:01:23;;;;;;;2.20;1.20;;;;;;;25.04;29.42;97951.56;3598578;39;20054;-65
2021/05/09 10:03:52;;;;;;;2.22;1.70;;;;;;;25.10;29.61;97956.56;3598812;39;20129;-65
2021/05/09 10:06:20;;;;;;;1.98;1.70;;;;;;;25.17;29.67;97943.41;3598508;39;20059;-65
2021/05/09 10:08:48;;;;;;;2.20;1.50;;;;;;;25.27;29.11;97946.97;3598209;39;20044;-64
2021/05/09 10:11:15;;;;;;;2.58;1.42;;;;;;;25.35;28.54;97940.81;3597373;40;20048;-64
2021/05/09 10:13:42;;;;;;;2.13;1.70;;;;;;;25.38;28.47;97935.56;3598429;39;20055;-64
2021/05/09 10:16:10;;;;;;;1.65;1.50;;;;;;;25.50;29.10;97926.88;3598346;39;20316;-64
2021/05/09 10:18:40;;;;;;;3.25;2.35;;;;;;;25.74;29.21;97925.72;3598295;39;20058;-65
2021/05/09 10:21:07;;;;;;;3.10;2.67;;;;;;;25.88;29.08;97919.13;3598414;39;20133;-64
2021/05/09 10:23:35;;;;;;;3.88;2.47;;;;;;;26.05;28.58;97914.88;3598549;39;20072;-65
2021/05/09 10:26:02;;;;;;;2.53;2.22;;;;;;;26.14;28.64;97924.59;3598355;39;20047;-65
2021/05/09 10:28:37;;;;;;;5.70;4.82;;;;;;;26.24;28.21;97912.66;3598142;39;20052;-64
2021/05/09 10:31:04;;;;;;;3.78;2.15;;;;;;;26.28;27.54;97920.94;3598122;39;20401;-66
2021/05/09 10:33:47;;;;;;;3.95;1.67;;;;;;;26.28;27.31;97929.06;3598225;40;20055;-65
2021/05/09 10:36:40;;;;;;;3.92;1.30;;;;;;;26.15;27.34;97917.25;3597446;40;20051;-66
2021/05/09 10:39:10;;;;;;;2.42;1.60;;;;;;;26.01;27.13;97893.03;3598433;40;20108;-64
2021/05/09 10:41:38;;;;;;;4.53;1.75;;;;;;;25.97;27.35;97897.47;3598317;39;20040;-64
2021/05/09 10:44:46;;;;;;;4.40;1.48;;;;;;;25.80;27.64;97900.13;3598523;39;20092;-65
2021/05/09 10:47:16;;;;;;;3.80;1.38;;;;;;;25.68;27.84;97898.00;3575881;40;20040;-65
2021/05/09 10:50:27;;;;;;;5.60;1.55;;;;;;;25.65;27.97;97893.22;3595478;39;20032;-65
2021/05/09 10:52:55;;;;;;;2.83;1.50;;;;;;;25.65;27.66;97895.91;3597616;40;20386;-65
2021/05/09 10:55:42;;;;;;;3.58;1.45;;;;;;;25.61;27.62;97884.13;3598357;39;20033;-64
2021/05/09 10:58:10;;;;;;;3.05;1.40;;;;;;;25.69;27.17;97878.75;3598638;40;20430;-64
2021/05/09 11:01:15;;;;;;;3.97;1.60;;;;;;;25.88;27.38;97881.22;3599738;39;20051;-64
2021/05/09 11:03:49;;;;;;;2.05;1.10;;;;;;;26.14;27.30;97878.56;3599726;40;20052;-65
2021/05/09 11:06:17;;;;;;;2.60;1.73;;;;;;;26.44;26.81;97867.88;3600287;39;20096;-65
2021/05/09 11:09:01;;;;;;;6.65;3.55;;;;;;;26.61;26.78;97876.03;3607340;39;20036;-64
2021/05/09 11:12:03;;;;;;;3.22;2.17;;;;;;;26.83;26.71;97866.16;3599861;39;20070;-64
2021/05/09 11:14:31;;;;;;;2.70;1.80;;;;;;;26.98;26.70;97881.09;3600108;40;20060;-64
2021/05/09 11:17:18;;;;;;;3.63;2.10;;;;;;;26.93;26.02;97874.72;3600465;39;20136;-65
2021/05/09 11:19:49;;;;;;;3.58;1.40;;;;;;;26.90;26.12;97866.44;3603591;40;20044;-65
2021/05/09 11:22:24;;;;;;;2.80;1.63;;;;;;;26.97;26.22;97869.44;3605250;40;20339;-65
2021/05/09 11:24:59;;;;;;;52.53;2.55;;;;;;;27.04;25.57;97871.69;3605592;39;20066;-65
2021/05/09 11:27:28;;;;;;;3.22;1.73;;;;;;;27.06;25.74;97872.13;3605097;39;20048;-65
2021/05/09 11:29:57;;;;;;;4.40;1.70;;;;;;;27.03;25.63;97867.38;3604439;39;20051;-64
2021/05/09 11:32:25;;;;;;;3.58;1.95;;;;;;;27.06;25.86;97875.66;3600416;39;20036;-64
2021/05/09 11:34:57;;;;;;;2.15;1.52;;;;;;;27.19;25.58;97873.09;3599954;39;20147;-65
2021/05/09 11:37:40;;;;;;;3.00;1.55;;;;;;;27.34;25.71;97875.28;3599979;39;20345;-65
2021/05/09 11:40:10;;;;;;;2.85;1.42;;;;;;;27.44;25.51;97864.09;3600098;39;20036;-64
2021/05/09 11:42:38;;;;;;;2.15;1.60;;;;;;;27.52;25.95;97865.16;3600048;39;20052;-65
2021/05/09 11:45:06;;;;;;;3.58;1.50;;;;;;;27.56;26.00;97857.97;3600081;39;20043;-65